sensor_id;sensor_type;location;lat;lon;timestamp;pressure;altitude;pressure_sealevel;temperature;humidity
41800;BME280;27468;47.460;19.034;2023-03-21T00:01:51;100394.16;;;12.37;63.59
41800;BME280;27468;47.460;19.034;2023-03-21T00:04:17;100341.25;;;12.06;63.84
41800;BME280;27468;47.460;19.034;2023-03-21T00:06:43;100362.91;;;12.18;63.66
41800;BME280;27468;47.460;19.034;2023-03-21T00:09:08;100390.50;;;12.41;63.45
41800;BME280;27468;47.460;19.034;2023-03-21T00:11:34;100354.66;;;12.31;63.24
41800;BME280;27468;47.460;19.034;2023-03-21T00:13:59;100344.97;;;12.30;63.03
41800;BME280;27468;47.460;19.034;2023-03-21T00:16:27;100360.56;;;12.40;62.96
41800;BME280;27468;47.460;19.034;2023-03-21T00:18:55;100377.75;;;12.56;63.03
41800;BME280;27468;47.460;19.034;2023-03-21T00:21:23;100322.06;;;12.30;62.60
41800;BME280;27468;47.460;19.034;2023-03-21T00:23:59;100347.22;;;12.45;62.46
41800;BME280;27468;47.460;19.034;2023-03-21T00:26:25;100343.56;;;12.49;62.46
41800;BME280;27468;47.460;19.034;2023-03-21T00:28:50;100360.00;;;12.60;62.22
41800;BME280;27468;47.460;19.034;2023-03-21T00:31:16;100362.81;;;12.54;62.48
41800;BME280;27468;47.460;19.034;2023-03-21T00:33:42;100348.88;;;12.49;62.24
41800;BME280;27468;47.460;19.034;2023-03-21T00:36:08;100360.19;;;12.54;62.28
41800;BME280;27468;47.460;19.034;2023-03-21T00:38:36;100289.16;;;12.11;62.35
41800;BME280;27468;47.460;19.034;2023-03-21T00:41:10;100309.06;;;12.22;62.44
41800;BME280;27468;47.460;19.034;2023-03-21T00:43:35;100288.34;;;12.07;62.38
41800;BME280;27468;47.460;19.034;2023-03-21T00:46:02;100346.09;;;12.53;62.21
41800;BME280;27468;47.460;19.034;2023-03-21T00:48:28;100329.56;;;12.45;62.09
41800;BME280;27468;47.460;19.034;2023-03-21T00:50:55;100302.81;;;12.25;62.03
41800;BME280;27468;47.460;19.034;2023-03-21T00:53:22;100339.97;;;12.51;62.17
41800;BME280;27468;47.460;19.034;2023-03-21T00:55:48;100347.75;;;12.57;61.80
41800;BME280;27468;47.460;19.034;2023-03-21T00:58:14;100336.56;;;12.48;61.95
41800;BME280;27468;47.460;19.034;2023-03-21T01:00:39;100346.34;;;12.44;62.16
41800;BME280;27468;47.460;19.034;2023-03-21T01:03:07;100342.22;;;12.34;62.54
41800;BME280;27468;47.460;19.034;2023-03-21T01:05:36;100334.38;;;12.31;62.71
41800;BME280;27468;47.460;19.034;2023-03-21T01:08:21;100338.16;;;12.21;62.86
41800;BME280;27468;47.460;19.034;2023-03-21T01:10:48;100350.53;;;12.20;63.37
41800;BME280;27468;47.460;19.034;2023-03-21T01:13:16;100345.47;;;12.13;63.60
41800;BME280;27468;47.460;19.034;2023-03-21T01:15:53;100310.09;;;11.84;63.73
41800;BME280;27468;47.460;19.034;2023-03-21T01:18:21;100344.97;;;11.99;64.20
41800;BME280;27468;47.460;19.034;2023-03-21T01:20:47;100349.50;;;11.94;64.52
41800;BME280;27468;47.460;19.034;2023-03-21T01:23:14;100336.38;;;11.90;64.37
41800;BME280;27468;47.460;19.034;2023-03-21T01:25:39;100339.13;;;11.86;64.68
41800;BME280;27468;47.460;19.034;2023-03-21T01:28:05;100333.16;;;11.76;64.83
41800;BME280;27468;47.460;19.034;2023-03-21T01:30:31;100295.03;;;11.54;64.87
41800;BME280;27468;47.460;19.034;2023-03-21T01:32:57;100348.22;;;11.73;65.33
41800;BME280;27468;47.460;19.034;2023-03-21T01:35:22;100286.84;;;11.29;65.50
41800;BME280;27468;47.460;19.034;2023-03-21T01:37:48;100349.47;;;11.58;65.98
41800;BME280;27468;47.460;19.034;2023-03-21T01:40:26;100315.44;;;11.47;65.73
41800;BME280;27468;47.460;19.034;2023-03-21T01:42:52;100313.06;;;11.37;65.84
41800;BME280;27468;47.460;19.034;2023-03-21T01:48:22;100303.09;;;11.11;66.06
41800;BME280;27468;47.460;19.034;2023-03-21T01:50:49;100355.19;;;11.41;65.84
41800;BME280;27468;47.460;19.034;2023-03-21T01:53:18;100359.63;;;11.39;66.30
41800;BME280;27468;47.460;19.034;2023-03-21T01:55:46;100358.03;;;11.32;66.70
41800;BME280;27468;47.460;19.034;2023-03-21T01:58:13;100348.38;;;11.31;66.24
41800;BME280;27468;47.460;19.034;2023-03-21T02:00:43;100342.38;;;11.24;66.29
41800;BME280;27468;47.460;19.034;2023-03-21T02:03:10;100336.34;;;11.18;66.53
41800;BME280;27468;47.460;19.034;2023-03-21T02:05:58;100290.50;;;10.86;66.53
41800;BME280;27468;47.460;19.034;2023-03-21T02:08:26;100367.88;;;11.24;66.73
41800;BME280;27468;47.460;19.034;2023-03-21T02:10:52;100357.41;;;11.21;67.01
41800;BME280;27468;47.460;19.034;2023-03-21T02:13:18;100371.38;;;11.26;67.14
41800;BME280;27468;47.460;19.034;2023-03-21T02:16:00;100369.53;;;11.30;66.99
41800;BME280;27468;47.460;19.034;2023-03-21T02:27:31;100357.53;;;11.15;67.65
41800;BME280;27468;47.460;19.034;2023-03-21T02:35:27;100355.72;;;11.17;67.65
41800;BME280;27468;47.460;19.034;2023-03-21T02:40:46;100362.00;;;11.11;67.92
41800;BME280;27468;47.460;19.034;2023-03-21T02:43:29;100316.03;;;10.84;67.61
41800;BME280;27468;47.460;19.034;2023-03-21T02:46:41;100366.44;;;11.09;68.08
41800;BME280;27468;47.460;19.034;2023-03-21T02:48:58;100340.22;;;11.03;67.73
41800;BME280;27468;47.460;19.034;2023-03-21T02:51:26;100360.22;;;11.13;67.58
41800;BME280;27468;47.460;19.034;2023-03-21T02:54:00;100355.19;;;11.01;67.84
41800;BME280;27468;47.460;19.034;2023-03-21T02:56:27;100352.44;;;11.07;67.69
41800;BME280;27468;47.460;19.034;2023-03-21T02:58:52;100338.66;;;10.95;67.59
41800;BME280;27468;47.460;19.034;2023-03-21T03:01:18;100363.03;;;11.04;67.87
41800;BME280;27468;47.460;19.034;2023-03-21T03:03:44;100331.75;;;10.89;67.82
41800;BME280;27468;47.460;19.034;2023-03-21T03:06:18;100344.81;;;10.95;67.67
41800;BME280;27468;47.460;19.034;2023-03-21T03:19:25;100363.19;;;10.98;67.43
41800;BME280;27468;47.460;19.034;2023-03-21T03:22:04;100357.97;;;10.97;67.52
41800;BME280;27468;47.460;19.034;2023-03-21T03:24:35;100314.41;;;10.79;67.07
41800;BME280;27468;47.460;19.034;2023-03-21T03:27:09;100350.78;;;11.02;66.79
41800;BME280;27468;47.460;19.034;2023-03-21T03:29:39;100355.09;;;11.06;67.00
41800;BME280;27468;47.460;19.034;2023-03-21T03:34:40;100337.81;;;10.94;67.02
41800;BME280;27468;47.460;19.034;2023-03-21T03:37:10;100354.41;;;10.98;66.96
41800;BME280;27468;47.460;19.034;2023-03-21T03:39:50;100358.50;;;11.11;66.62
41800;BME280;27468;47.460;19.034;2023-03-21T03:42:27;100294.22;;;10.76;66.60
41800;BME280;27468;47.460;19.034;2023-03-21T03:44:55;100347.94;;;11.11;66.46
41800;BME280;27468;47.460;19.034;2023-03-21T03:47:29;100349.44;;;11.22;66.16
41800;BME280;27468;47.460;19.034;2023-03-21T03:50:04;100355.63;;;11.21;66.30
41800;BME280;27468;47.460;19.034;2023-03-21T03:52:40;100326.06;;;11.06;65.85
41800;BME280;27468;47.460;19.034;2023-03-21T03:55:06;100354.00;;;11.16;66.23
41800;BME280;27468;47.460;19.034;2023-03-21T03:57:34;100358.31;;;11.20;66.17
41800;BME280;27468;47.460;19.034;2023-03-21T04:00:00;100360.88;;;11.23;65.91
41800;BME280;27468;47.460;19.034;2023-03-21T04:02:25;100349.56;;;11.18;65.69
41800;BME280;27468;47.460;19.034;2023-03-21T04:04:51;100359.94;;;11.25;65.65
41800;BME280;27468;47.460;19.034;2023-03-21T04:07:18;100352.28;;;11.13;65.94
41800;BME280;27468;47.460;19.034;2023-03-21T04:09:44;100310.66;;;10.89;65.84
41800;BME280;27468;47.460;19.034;2023-03-21T04:12:10;100266.38;;;10.63;65.88
41800;BME280;27468;47.460;19.034;2023-03-21T04:14:37;100313.47;;;10.81;66.37
41800;BME280;27468;47.460;19.034;2023-03-21T04:17:02;100339.69;;;10.87;66.94
41800;BME280;27468;47.460;19.034;2023-03-21T04:19:28;100316.34;;;10.69;67.08
41800;BME280;27468;47.460;19.034;2023-03-21T04:21:54;100367.59;;;10.98;67.07
41800;BME280;27468;47.460;19.034;2023-03-21T04:24:19;100346.63;;;10.93;66.64
41800;BME280;27468;47.460;19.034;2023-03-21T04:26:45;100289.47;;;10.52;66.93
41800;BME280;27468;47.460;19.034;2023-03-21T04:29:10;100367.66;;;10.96;66.76
41800;BME280;27468;47.460;19.034;2023-03-21T04:31:36;100360.84;;;10.86;67.12
41800;BME280;27468;47.460;19.034;2023-03-21T04:34:04;100317.47;;;10.57;67.11
41800;BME280;27468;47.460;19.034;2023-03-21T04:36:34;100361.84;;;10.80;67.25
41800;BME280;27468;47.460;19.034;2023-03-21T04:39:06;100342.00;;;10.61;67.43
41800;BME280;27468;47.460;19.034;2023-03-21T04:41:41;100360.19;;;10.75;67.52
41800;BME280;27468;47.460;19.034;2023-03-21T04:44:07;100356.72;;;10.73;67.53
41800;BME280;27468;47.460;19.034;2023-03-21T04:46:33;100314.22;;;10.45;67.93
41800;BME280;27468;47.460;19.034;2023-03-21T04:49:00;100342.00;;;10.61;67.82
41800;BME280;27468;47.460;19.034;2023-03-21T04:51:25;100351.59;;;10.65;67.94
41800;BME280;27468;47.460;19.034;2023-03-21T04:53:51;100336.84;;;10.56;68.34
41800;BME280;27468;47.460;19.034;2023-03-21T04:56:30;100343.03;;;10.54;68.64
41800;BME280;27468;47.460;19.034;2023-03-21T04:58:58;100357.88;;;10.58;68.44
41800;BME280;27468;47.460;19.034;2023-03-21T05:01:24;100357.13;;;10.51;68.87
41800;BME280;27468;47.460;19.034;2023-03-21T05:03:50;100359.81;;;10.50;69.12
41800;BME280;27468;47.460;19.034;2023-03-21T05:06:16;100360.81;;;10.43;69.16
41800;BME280;27468;47.460;19.034;2023-03-21T05:08:42;100358.28;;;10.40;69.25
41800;BME280;27468;47.460;19.034;2023-03-21T05:11:07;100341.81;;;10.29;69.61
41800;BME280;27468;47.460;19.034;2023-03-21T05:13:33;100341.00;;;10.25;69.60
41800;BME280;27468;47.460;19.034;2023-03-21T05:15:58;100310.59;;;10.06;69.88
41800;BME280;27468;47.460;19.034;2023-03-21T05:18:23;100365.25;;;10.41;69.38
41800;BME280;27468;47.460;19.034;2023-03-21T05:20:51;100325.94;;;10.32;68.99
41800;BME280;27468;47.460;19.034;2023-03-21T05:23:21;100344.88;;;10.49;68.96
41800;BME280;27468;47.460;19.034;2023-03-21T05:25:47;100366.63;;;10.60;68.82
41800;BME280;27468;47.460;19.034;2023-03-21T05:28:13;100361.34;;;10.62;68.42
41800;BME280;27468;47.460;19.034;2023-03-21T05:30:43;100373.38;;;10.75;68.53
41800;BME280;27468;47.460;19.034;2023-03-21T05:33:09;100350.63;;;10.69;68.36
41800;BME280;27468;47.460;19.034;2023-03-21T05:35:35;100359.34;;;10.73;68.24
41800;BME280;27468;47.460;19.034;2023-03-21T05:38:00;100387.06;;;10.94;68.13
41800;BME280;27468;47.460;19.034;2023-03-21T05:40:26;100347.00;;;10.75;67.99
41800;BME280;27468;47.460;19.034;2023-03-21T05:42:51;100397.38;;;11.03;68.19
41800;BME280;27468;47.460;19.034;2023-03-21T05:45:16;100371.16;;;10.97;67.73
41800;BME280;27468;47.460;19.034;2023-03-21T05:47:42;100366.84;;;10.93;68.04
41800;BME280;27468;47.460;19.034;2023-03-21T05:50:09;100407.75;;;11.12;67.98
41800;BME280;27468;47.460;19.034;2023-03-21T05:52:35;100340.63;;;10.85;67.86
41800;BME280;27468;47.460;19.034;2023-03-21T05:55:01;100398.69;;;11.23;67.86
41800;BME280;27468;47.460;19.034;2023-03-21T05:57:26;100400.28;;;11.31;67.50
41800;BME280;27468;47.460;19.034;2023-03-21T05:59:53;100396.69;;;11.35;66.99
41800;BME280;27468;47.460;19.034;2023-03-21T06:02:18;100393.91;;;11.41;66.69
41800;BME280;27468;47.460;19.034;2023-03-21T06:04:44;100344.44;;;11.10;66.80
41800;BME280;27468;47.460;19.034;2023-03-21T06:07:09;100379.06;;;11.35;66.73
41800;BME280;27468;47.460;19.034;2023-03-21T06:09:35;100403.41;;;11.48;66.86
41800;BME280;27468;47.460;19.034;2023-03-21T06:12:00;100370.50;;;11.25;66.47
41800;BME280;27468;47.460;19.034;2023-03-21T06:14:26;100404.94;;;11.56;66.36
41800;BME280;27468;47.460;19.034;2023-03-21T06:16:51;100409.00;;;11.71;65.98
41800;BME280;27468;47.460;19.034;2023-03-21T06:19:19;100406.22;;;11.79;65.55
41800;BME280;27468;47.460;19.034;2023-03-21T06:21:45;100409.44;;;11.92;65.41
41800;BME280;27468;47.460;19.034;2023-03-21T06:24:10;100398.78;;;11.95;65.29
41800;BME280;27468;47.460;19.034;2023-03-21T06:26:36;100342.91;;;11.74;64.71
41800;BME280;27468;47.460;19.034;2023-03-21T06:29:02;100405.28;;;12.15;64.34
41800;BME280;27468;47.460;19.034;2023-03-21T06:31:27;100353.22;;;11.85;64.25
41800;BME280;27468;47.460;19.034;2023-03-21T06:33:52;100395.22;;;12.30;63.90
41800;BME280;27468;47.460;19.034;2023-03-21T06:36:18;100402.16;;;12.34;63.51
41800;BME280;27468;47.460;19.034;2023-03-21T06:38:43;100392.31;;;12.39;63.33
41800;BME280;27468;47.460;19.034;2023-03-21T06:41:11;100393.16;;;12.41;62.82
41800;BME280;27468;47.460;19.034;2023-03-21T06:43:37;100400.25;;;12.39;62.97
41800;BME280;27468;47.460;19.034;2023-03-21T06:46:03;100353.25;;;12.17;62.71
41800;BME280;27468;47.460;19.034;2023-03-21T06:48:29;100413.34;;;12.43;62.53
41800;BME280;27468;47.460;19.034;2023-03-21T06:50:55;100394.19;;;12.35;62.32
41800;BME280;27468;47.460;19.034;2023-03-21T06:53:22;100401.91;;;12.43;62.17
41800;BME280;27468;47.460;19.034;2023-03-21T06:55:54;100380.84;;;12.40;62.09
41800;BME280;27468;47.460;19.034;2023-03-21T06:58:21;100400.84;;;12.50;62.12
41800;BME280;27468;47.460;19.034;2023-03-21T07:00:46;100364.75;;;12.15;62.34
41800;BME280;27468;47.460;19.034;2023-03-21T07:03:12;100364.63;;;12.19;62.14
41800;BME280;27468;47.460;19.034;2023-03-21T07:05:38;100391.25;;;12.46;62.32
41800;BME280;27468;47.460;19.034;2023-03-21T07:08:05;100353.91;;;12.26;61.40
41800;BME280;27468;47.460;19.034;2023-03-21T07:10:32;100391.38;;;12.41;61.49
41800;BME280;27468;47.460;19.034;2023-03-21T07:12:58;100412.06;;;12.58;61.65
41800;BME280;27468;47.460;19.034;2023-03-21T07:15:24;100398.03;;;12.56;60.88
41800;BME280;27468;47.460;19.034;2023-03-21T07:17:50;100409.38;;;12.60;61.45
41800;BME280;27468;47.460;19.034;2023-03-21T07:20:15;100387.28;;;12.62;60.89
41800;BME280;27468;47.460;19.034;2023-03-21T07:22:41;100411.75;;;12.70;60.75
41800;BME280;27468;47.460;19.034;2023-03-21T07:25:07;100361.13;;;12.51;60.65
41800;BME280;27468;47.460;19.034;2023-03-21T07:27:33;100362.59;;;12.62;60.66
41800;BME280;27468;47.460;19.034;2023-03-21T07:29:58;100403.34;;;12.85;60.57
41800;BME280;27468;47.460;19.034;2023-03-21T07:32:24;100366.03;;;12.65;60.38
41800;BME280;27468;47.460;19.034;2023-03-21T07:34:54;100406.50;;;12.98;60.00
41800;BME280;27468;47.460;19.034;2023-03-21T07:37:20;100410.78;;;13.02;59.60
41800;BME280;27468;47.460;19.034;2023-03-21T07:39:45;100394.28;;;12.94;58.70
41800;BME280;27468;47.460;19.034;2023-03-21T07:42:11;100362.38;;;12.99;57.00
41800;BME280;27468;47.460;19.034;2023-03-21T07:44:36;100402.16;;;13.27;56.92
41800;BME280;27468;47.460;19.034;2023-03-21T07:47:03;100394.28;;;13.25;56.49
41800;BME280;27468;47.460;19.034;2023-03-21T07:49:28;100382.59;;;13.31;56.70
41800;BME280;27468;47.460;19.034;2023-03-21T07:51:54;100402.09;;;13.56;55.54
41800;BME280;27468;47.460;19.034;2023-03-21T07:54:19;100363.16;;;13.32;56.00
41800;BME280;27468;47.460;19.034;2023-03-21T07:56:46;100380.19;;;13.51;55.58
41800;BME280;27468;47.460;19.034;2023-03-21T07:59:12;100400.66;;;13.74;54.44
41800;BME280;27468;47.460;19.034;2023-03-21T08:01:37;100342.16;;;13.53;54.17
41800;BME280;27468;47.460;19.034;2023-03-21T08:04:03;100387.97;;;13.83;53.85
41800;BME280;27468;47.460;19.034;2023-03-21T08:06:28;100341.75;;;13.66;53.83
41800;BME280;27468;47.460;19.034;2023-03-21T08:08:57;100389.22;;;13.98;53.56
41800;BME280;27468;47.460;19.034;2023-03-21T08:11:22;100384.75;;;14.00;53.33
41800;BME280;27468;47.460;19.034;2023-03-21T08:13:49;100372.25;;;14.04;53.00
41800;BME280;27468;47.460;19.034;2023-03-21T08:16:16;100368.53;;;14.09;52.93
41800;BME280;27468;47.460;19.034;2023-03-21T08:18:41;100383.59;;;14.34;50.48
41800;BME280;27468;47.460;19.034;2023-03-21T08:21:07;100386.19;;;14.35;50.88
41800;BME280;27468;47.460;19.034;2023-03-21T08:23:32;100377.91;;;14.44;49.88
41800;BME280;27468;47.460;19.034;2023-03-21T08:25:58;100381.22;;;14.51;48.99
41800;BME280;27468;47.460;19.034;2023-03-21T08:28:24;100330.66;;;14.31;47.81
41800;BME280;27468;47.460;19.034;2023-03-21T08:30:49;100374.00;;;14.54;47.44
41800;BME280;27468;47.460;19.034;2023-03-21T08:33:15;100382.34;;;14.69;47.37
41800;BME280;27468;47.460;19.034;2023-03-21T08:35:43;100388.28;;;14.75;47.97
41800;BME280;27468;47.460;19.034;2023-03-21T08:38:09;100378.31;;;14.82;48.27
41800;BME280;27468;47.460;19.034;2023-03-21T08:40:34;100373.06;;;14.80;48.55
41800;BME280;27468;47.460;19.034;2023-03-21T08:43:00;100370.00;;;14.91;47.36
41800;BME280;27468;47.460;19.034;2023-03-21T08:45:26;100360.25;;;14.92;47.65
41800;BME280;27468;47.460;19.034;2023-03-21T08:47:52;100385.38;;;15.05;47.79
41800;BME280;27468;47.460;19.034;2023-03-21T08:50:20;100383.38;;;15.11;46.43
41800;BME280;27468;47.460;19.034;2023-03-21T08:52:46;100381.16;;;15.23;47.36
41800;BME280;27468;47.460;19.034;2023-03-21T08:55:13;100392.25;;;15.34;46.46
41800;BME280;27468;47.460;19.034;2023-03-21T08:57:39;100395.53;;;15.40;46.64
41800;BME280;27468;47.460;19.034;2023-03-21T09:00:05;100358.81;;;15.28;46.09
41800;BME280;27468;47.460;19.034;2023-03-21T09:02:35;100387.13;;;15.51;46.30
41800;BME280;27468;47.460;19.034;2023-03-21T09:05:01;100344.44;;;15.34;45.51
41800;BME280;27468;47.460;19.034;2023-03-21T09:07:26;100398.22;;;15.62;45.02
41800;BME280;27468;47.460;19.034;2023-03-21T09:09:52;100379.09;;;15.52;45.46
41800;BME280;27468;47.460;19.034;2023-03-21T09:12:18;100378.38;;;15.71;45.79
41800;BME280;27468;47.460;19.034;2023-03-21T09:14:43;100376.81;;;15.87;45.91
41800;BME280;27468;47.460;19.034;2023-03-21T09:17:08;100390.41;;;16.01;45.54
41800;BME280;27468;47.460;19.034;2023-03-21T09:19:34;100390.94;;;16.09;45.31
41800;BME280;27468;47.460;19.034;2023-03-21T09:22:00;100357.00;;;15.94;44.33
41800;BME280;27468;47.460;19.034;2023-03-21T09:24:26;100387.09;;;16.16;43.85
41800;BME280;27468;47.460;19.034;2023-03-21T09:26:52;100385.13;;;16.20;43.88
41800;BME280;27468;47.460;19.034;2023-03-21T09:29:18;100379.19;;;16.15;43.77
41800;BME280;27468;47.460;19.034;2023-03-21T09:31:45;100393.19;;;16.18;43.69
41800;BME280;27468;47.460;19.034;2023-03-21T09:34:11;100380.75;;;16.19;43.57
41800;BME280;27468;47.460;19.034;2023-03-21T09:36:38;100375.38;;;16.21;43.13
41800;BME280;27468;47.460;19.034;2023-03-21T09:39:06;100380.13;;;16.14;41.53
41800;BME280;27468;47.460;19.034;2023-03-21T09:44:50;100357.38;;;16.07;42.27
41800;BME280;27468;47.460;19.034;2023-03-21T09:47:25;100383.69;;;16.33;42.54
41800;BME280;27468;47.460;19.034;2023-03-21T09:50:03;100360.34;;;16.19;42.89
41800;BME280;27468;47.460;19.034;2023-03-21T09:55:23;100380.44;;;16.47;42.85
41800;BME280;27468;47.460;19.034;2023-03-21T10:00:42;100358.72;;;16.17;42.68
41800;BME280;27468;47.460;19.034;2023-03-21T10:03:21;100343.44;;;16.21;42.78
41800;BME280;27468;47.460;19.034;2023-03-21T10:05:52;100349.38;;;16.27;42.42
41800;BME280;27468;47.460;19.034;2023-03-21T10:08:27;100369.66;;;16.50;41.71
41800;BME280;27468;47.460;19.034;2023-03-21T10:11:02;100376.63;;;16.52;40.51
41800;BME280;27468;47.460;19.034;2023-03-21T10:13:39;100331.31;;;16.15;40.56
41800;BME280;27468;47.460;19.034;2023-03-21T10:16:20;100361.34;;;16.37;40.25
41800;BME280;27468;47.460;19.034;2023-03-21T10:18:47;100351.91;;;16.30;40.85
41800;BME280;27468;47.460;19.034;2023-03-21T10:21:34;100364.88;;;16.38;40.41
41800;BME280;27468;47.460;19.034;2023-03-21T10:24:02;100346.72;;;16.27;39.71
41800;BME280;27468;47.460;19.034;2023-03-21T10:26:28;100360.47;;;16.37;40.02
41800;BME280;27468;47.460;19.034;2023-03-21T10:28:57;100346.72;;;16.27;39.78
41800;BME280;27468;47.460;19.034;2023-03-21T10:31:24;100348.16;;;16.34;40.05
41800;BME280;27468;47.460;19.034;2023-03-21T10:33:52;100347.97;;;16.39;39.75
41800;BME280;27468;47.460;19.034;2023-03-21T10:36:24;100359.00;;;16.50;40.09
41800;BME280;27468;47.460;19.034;2023-03-21T10:39:07;100351.69;;;16.55;38.90
41800;BME280;27468;47.460;19.034;2023-03-21T10:41:36;100333.13;;;16.54;38.44
41800;BME280;27468;47.460;19.034;2023-03-21T10:46:31;100346.94;;;16.62;38.56
41800;BME280;27468;47.460;19.034;2023-03-21T10:48:58;100351.34;;;16.63;38.61
41800;BME280;27468;47.460;19.034;2023-03-21T10:51:30;100338.91;;;16.63;38.55
41800;BME280;27468;47.460;19.034;2023-03-21T10:53:58;100343.50;;;16.60;38.47
41800;BME280;27468;47.460;19.034;2023-03-21T10:56:30;100347.72;;;16.65;38.00
41800;BME280;27468;47.460;19.034;2023-03-21T10:58:57;100342.50;;;16.62;37.95
41800;BME280;27468;47.460;19.034;2023-03-21T11:01:45;100341.75;;;16.59;38.24
41800;BME280;27468;47.460;19.034;2023-03-21T11:04:15;100330.25;;;16.58;38.76
41800;BME280;27468;47.460;19.034;2023-03-21T11:06:44;100296.22;;;16.46;39.52
41800;BME280;27468;47.460;19.034;2023-03-21T11:09:19;100327.88;;;16.72;39.38
41800;BME280;27468;47.460;19.034;2023-03-21T11:14:42;100306.56;;;16.72;39.70
41800;BME280;27468;47.460;19.034;2023-03-21T11:20:06;100312.88;;;16.89;38.98
41800;BME280;27468;47.460;19.034;2023-03-21T11:22:39;100315.97;;;16.79;37.78
41800;BME280;27468;47.460;19.034;2023-03-21T11:25:14;100309.91;;;16.76;38.20
41800;BME280;27468;47.460;19.034;2023-03-21T11:27:48;100299.72;;;16.67;37.73
41800;BME280;27468;47.460;19.034;2023-03-21T11:30:23;100308.56;;;16.67;36.43
41800;BME280;27468;47.460;19.034;2023-03-21T11:32:55;100297.25;;;16.62;36.97
41800;BME280;27468;47.460;19.034;2023-03-21T11:35:24;100257.91;;;16.30;37.66
41800;BME280;27468;47.460;19.034;2023-03-21T11:37:55;100249.28;;;16.25;38.49
41800;BME280;27468;47.460;19.034;2023-03-21T11:42:53;100291.97;;;16.42;38.24
41800;BME280;27468;47.460;19.034;2023-03-21T11:47:51;100289.78;;;16.31;38.40
41800;BME280;27468;47.460;19.034;2023-03-21T11:50:19;100291.16;;;16.40;38.70
41800;BME280;27468;47.460;19.034;2023-03-21T12:04:11;100266.16;;;16.63;36.20
41800;BME280;27468;47.460;19.034;2023-03-21T12:15:00;100252.81;;;17.19;37.51
41800;BME280;27468;47.460;19.034;2023-03-21T12:20:20;100247.38;;;17.57;36.48
41800;BME280;27468;47.460;19.034;2023-03-21T12:26:17;100245.28;;;17.80;37.54
41800;BME280;27468;47.460;19.034;2023-03-21T12:31:36;100240.38;;;18.06;36.20
41800;BME280;27468;47.460;19.034;2023-03-21T12:34:29;100251.28;;;18.19;36.04
41800;BME280;27468;47.460;19.034;2023-03-21T12:37:11;100244.63;;;18.10;37.05
41800;BME280;27468;47.460;19.034;2023-03-21T12:39:45;100245.78;;;18.04;37.04
41800;BME280;27468;47.460;19.034;2023-03-21T12:42:42;100246.34;;;18.11;37.21
41800;BME280;27468;47.460;19.034;2023-03-21T12:45:14;100239.34;;;18.08;37.22
41800;BME280;27468;47.460;19.034;2023-03-21T12:47:43;100234.03;;;18.08;37.16
41800;BME280;27468;47.460;19.034;2023-03-21T12:50:31;100239.53;;;18.05;37.53
41800;BME280;27468;47.460;19.034;2023-03-21T12:53:21;100221.44;;;17.77;37.81
41800;BME280;27468;47.460;19.034;2023-03-21T12:55:50;100232.75;;;17.65;38.12
41800;BME280;27468;47.460;19.034;2023-03-21T12:58:19;100222.66;;;17.53;38.49
41800;BME280;27468;47.460;19.034;2023-03-21T13:00:53;100204.16;;;17.15;38.74
41800;BME280;27468;47.460;19.034;2023-03-21T13:03:32;100228.84;;;17.36;38.57
41800;BME280;27468;47.460;19.034;2023-03-21T13:06:03;100231.44;;;17.55;37.99
41800;BME280;27468;47.460;19.034;2023-03-21T13:08:40;100220.88;;;17.54;37.99
41800;BME280;27468;47.460;19.034;2023-03-21T13:11:12;100170.31;;;17.35;37.79
41800;BME280;27468;47.460;19.034;2023-03-21T13:13:46;100212.81;;;17.72;37.83
41800;BME280;27468;47.460;19.034;2023-03-21T13:16:38;100214.28;;;17.95;37.22
41800;BME280;27468;47.460;19.034;2023-03-21T13:29:50;100172.34;;;17.81;36.11
41800;BME280;27468;47.460;19.034;2023-03-21T13:32:27;100205.25;;;17.98;36.41
41800;BME280;27468;47.460;19.034;2023-03-21T13:37:42;100210.75;;;17.95;35.44
41800;BME280;27468;47.460;19.034;2023-03-21T13:40:25;100190.00;;;17.84;35.96
41800;BME280;27468;47.460;19.034;2023-03-21T13:42:54;100181.06;;;17.68;36.03
41800;BME280;27468;47.460;19.034;2023-03-21T13:45:33;100163.88;;;17.56;36.31
41800;BME280;27468;47.460;19.034;2023-03-21T13:48:26;100188.75;;;17.74;36.00
41800;BME280;27468;47.460;19.034;2023-03-21T13:50:59;100194.09;;;17.74;36.04
41800;BME280;27468;47.460;19.034;2023-03-21T13:53:30;100189.78;;;17.71;35.66
41800;BME280;27468;47.460;19.034;2023-03-21T14:03:35;100181.66;;;17.56;35.04
41800;BME280;27468;47.460;19.034;2023-03-21T14:06:03;100140.91;;;17.36;34.95
41800;BME280;27468;47.460;19.034;2023-03-21T14:08:29;100128.59;;;17.34;34.98
41800;BME280;27468;47.460;19.034;2023-03-21T14:11:04;100157.22;;;17.47;34.85
41800;BME280;27468;47.460;19.034;2023-03-21T14:13:30;100170.94;;;17.57;34.58
41800;BME280;27468;47.460;19.034;2023-03-21T14:15:59;100169.13;;;17.58;34.96
41800;BME280;27468;47.460;19.034;2023-03-21T14:18:29;100174.47;;;17.58;35.21
41800;BME280;27468;47.460;19.034;2023-03-21T14:20:56;100165.53;;;17.59;35.23
41800;BME280;27468;47.460;19.034;2023-03-21T14:23:22;100113.81;;;17.28;35.48
41800;BME280;27468;47.460;19.034;2023-03-21T14:25:48;100119.16;;;17.28;35.46
41800;BME280;27468;47.460;19.034;2023-03-21T14:28:18;100150.31;;;17.43;35.77
41800;BME280;27468;47.460;19.034;2023-03-21T14:30:44;100107.31;;;17.16;35.61
41800;BME280;27468;47.460;19.034;2023-03-21T14:33:28;100142.63;;;17.37;35.51
41800;BME280;27468;47.460;19.034;2023-03-21T14:36:02;100128.25;;;17.24;35.50